createdAt,value
2022-09-28T00:00:02.998Z,5.39
2022-09-28T00:01:02.988Z,5.39
2022-09-28T00:02:03.151Z,5.39
2022-09-28T00:03:03.029Z,5.22
2022-09-28T00:04:02.997Z,5.22
2022-09-28T00:05:02.991Z,5.39
2022-09-28T00:06:03.023Z,5.39
2022-09-28T00:07:02.987Z,5.39
2022-09-28T00:08:02.994Z,5.11
2022-09-28T00:09:02.990Z,5.11
2022-09-28T00:10:02.995Z,4.94
2022-09-28T00:11:02.987Z,4.83
2022-09-28T00:12:02.994Z,4.94
2022-09-28T00:13:02.987Z,4.83
2022-09-28T00:14:02.999Z,4.83
2022-09-28T00:15:02.998Z,4.83
2022-09-28T00:16:03.086Z,4.83
2022-09-28T00:17:02.993Z,4.83
2022-09-28T00:18:02.995Z,4.94
2022-09-28T00:19:03.004Z,4.94
2022-09-28T00:20:02.990Z,4.94
2022-09-28T00:21:02.997Z,4.94
2022-09-28T00:22:03.017Z,5.11
2022-09-28T00:23:02.988Z,4.94
2022-09-28T00:24:03.001Z,5.11
2022-09-28T00:25:02.996Z,4.94
2022-09-28T00:26:02.995Z,5.11
2022-09-28T00:27:02.988Z,4.94
2022-09-28T00:28:03.004Z,4.94
2022-09-28T00:29:03.000Z,4.94
2022-09-28T00:30:03.010Z,4.94
2022-09-28T00:31:03.076Z,4.94
2022-09-28T00:32:03.052Z,4.94
2022-09-28T00:33:03.005Z,5.11
2022-09-28T00:34:02.992Z,5.39
2022-09-28T00:35:02.998Z,5.39
2022-09-28T00:36:02.995Z,5.39
2022-09-28T00:37:03.000Z,4.94
2022-09-28T00:38:03.013Z,5.22
2022-09-28T00:39:02.998Z,4.94
2022-09-28T00:40:03.000Z,5.11
2022-09-28T00:41:02.999Z,5.11
2022-09-28T00:42:03.003Z,4.83
2022-09-28T00:43:02.998Z,4.94
2022-09-28T00:44:03.002Z,4.94
2022-09-28T00:45:02.991Z,4.83
2022-09-28T00:46:03.053Z,4.67
2022-09-28T00:47:02.998Z,4.67
2022-09-28T00:48:03.000Z,4.67
2022-09-28T00:49:02.998Z,4.83
2022-09-28T00:50:02.997Z,4.83
2022-09-28T00:51:03.001Z,4.83
2022-09-28T00:52:03.018Z,4.94
2022-09-28T00:53:02.994Z,4.94
2022-09-28T00:54:03.029Z,4.83
2022-09-28T00:55:02.995Z,4.94
2022-09-28T00:56:03.011Z,4.67
2022-09-28T00:57:02.996Z,4.94
2022-09-28T00:58:02.996Z,4.67
2022-09-28T00:59:03.001Z,5.11
2022-09-28T01:00:03.004Z,5.22
2022-09-28T01:01:03.034Z,5.11
2022-09-28T01:02:03.062Z,5.11
2022-09-28T01:03:03.001Z,5.11
2022-09-28T01:04:03.008Z,4.94
2022-09-28T01:05:02.993Z,4.94
2022-09-28T01:06:03.005Z,5.22
2022-09-28T01:07:03.000Z,4.94
2022-09-28T01:08:02.999Z,5.11
2022-09-28T01:09:03.020Z,4.67
2022-09-28T01:10:03.031Z,5.39
2022-09-28T01:11:03.007Z,5.39
2022-09-28T01:12:03.013Z,5.11
2022-09-28T01:13:03.005Z,5.39
2022-09-28T01:14:03.007Z,5.11
2022-09-28T01:15:03.007Z,4.94
2022-09-28T01:16:03.056Z,4.94
2022-09-28T01:17:03.004Z,5.11
2022-09-28T01:18:03.009Z,5.39
2022-09-28T01:19:02.999Z,5.56
2022-09-28T01:20:02.993Z,5.39
2022-09-28T01:21:03.007Z,5.22
2022-09-28T01:22:03.012Z,5.11
2022-09-28T01:23:03.010Z,4.94
2022-09-28T01:24:02.998Z,4.83
2022-09-28T01:25:03.005Z,4.94
2022-09-28T01:26:03.031Z,4.94
2022-09-28T01:27:02.998Z,5.11
2022-09-28T01:28:03.003Z,4.94
2022-09-28T01:29:03.001Z,5.11
2022-09-28T01:30:03.009Z,4.83
2022-09-28T01:31:03.003Z,4.94
2022-09-28T01:32:03.056Z,4.94
2022-09-28T01:33:03.006Z,5.11
2022-09-28T01:34:02.998Z,5.39
2022-09-28T01:35:03.007Z,5.22
2022-09-28T01:36:03.012Z,5.39
2022-09-28T01:37:03.007Z,5.22
2022-09-28T01:38:03.006Z,5.39
2022-09-28T01:39:03.007Z,5.39
2022-09-28T01:40:03.013Z,5.39
2022-09-28T01:41:03.017Z,5.39
2022-09-28T01:42:03.038Z,5.22
2022-09-28T01:43:03.010Z,5.39
2022-09-28T01:44:03.050Z,5.39
2022-09-28T01:45:03.009Z,5.39
2022-09-28T01:46:03.061Z,5.22
2022-09-28T01:47:03.006Z,5.11
2022-09-28T01:48:03.015Z,5.22
2022-09-28T01:49:03.018Z,5.22
2022-09-28T01:50:03.026Z,5.39
2022-09-28T01:51:03.006Z,5.39
2022-09-28T01:52:03.012Z,5.22
2022-09-28T01:53:03.016Z,5.11
2022-09-28T01:54:03.007Z,5.22
2022-09-28T01:55:03.025Z,5.39
2022-09-28T01:56:03.016Z,5.39
2022-09-28T01:57:03.009Z,5.39
2022-09-28T01:58:03.039Z,5.22
2022-09-28T01:59:03.006Z,5.11
2022-09-28T02:00:03.013Z,5.22
2022-09-28T02:01:03.083Z,5.11
2022-09-28T02:02:03.066Z,5.22
2022-09-28T02:03:03.020Z,5.22
2022-09-28T02:04:03.018Z,5.22
2022-09-28T02:05:03.035Z,5.11
2022-09-28T02:06:03.019Z,5.22
2022-09-28T02:07:03.011Z,5.22
2022-09-28T02:08:03.011Z,5.39
2022-09-28T02:09:03.020Z,5.22
2022-09-28T02:10:03.021Z,5.22
2022-09-28T02:11:03.017Z,5.22
2022-09-28T02:12:03.015Z,5.39
2022-09-28T02:13:03.004Z,5.39
2022-09-28T02:14:03.040Z,5.22
2022-09-28T02:15:03.009Z,5.56
2022-09-28T02:16:03.045Z,5.39
2022-09-28T02:17:03.016Z,5.11
2022-09-28T02:18:03.017Z,5.39
2022-09-28T02:19:03.018Z,5.22
2022-09-28T02:20:03.017Z,5.22
2022-09-28T02:21:03.031Z,4.94
2022-09-28T02:22:03.020Z,5.11
2022-09-28T02:23:03.016Z,4.94
2022-09-28T02:24:03.019Z,4.83
2022-09-28T02:25:03.014Z,5.22
2022-09-28T02:26:03.010Z,4.83
2022-09-28T02:27:03.014Z,5.11
2022-09-28T02:28:03.021Z,5.39
2022-09-28T02:29:03.019Z,5.22
2022-09-28T02:30:03.038Z,4.94
2022-09-28T02:31:03.071Z,5.22
2022-09-28T02:32:03.016Z,5.39
2022-09-28T02:33:03.010Z,5.39
2022-09-28T02:34:03.019Z,5.22
2022-09-28T02:35:03.022Z,5.39
2022-09-28T02:36:03.017Z,5.22
2022-09-28T02:37:03.026Z,5.39
2022-09-28T02:38:03.027Z,5.22
2022-09-28T02:39:03.014Z,5.22
2022-09-28T02:40:03.018Z,5.39
2022-09-28T02:41:03.019Z,5.11
2022-09-28T02:42:03.017Z,5.39
2022-09-28T02:43:03.025Z,5.11
2022-09-28T02:44:03.022Z,4.94
2022-09-28T02:45:03.019Z,5.11
2022-09-28T02:46:03.087Z,5.39
2022-09-28T02:47:03.013Z,5.39
2022-09-28T02:48:03.019Z,5.22
2022-09-28T02:49:20.135Z,5.22
2022-09-28T02:50:03.022Z,5.11
2022-09-28T02:51:03.021Z,5.39
2022-09-28T02:52:03.025Z,5.22
2022-09-28T02:53:03.019Z,5.39
2022-09-28T02:54:03.022Z,5.22
2022-09-28T02:55:03.035Z,5.22
2022-09-28T02:56:03.015Z,5.22
2022-09-28T02:57:03.032Z,5.39
2022-09-28T02:58:03.020Z,5.22
2022-09-28T02:59:03.021Z,5.11
2022-09-28T03:00:03.025Z,5.22
2022-09-28T03:01:03.067Z,5.11
2022-09-28T03:02:03.100Z,5.11
2022-09-28T03:03:03.028Z,5.11
2022-09-28T03:04:03.029Z,5.11
2022-09-28T03:05:03.020Z,5.11
2022-09-28T03:06:03.017Z,5.22
2022-09-28T03:07:03.018Z,4.83
2022-09-28T03:08:03.023Z,5.22
2022-09-28T03:09:03.024Z,5.39
2022-09-28T03:10:03.023Z,5.39
2022-09-28T03:11:03.023Z,5.39
2022-09-28T03:12:03.040Z,5.56
2022-09-28T03:13:03.023Z,5.22
2022-09-28T03:14:03.018Z,5.39
2022-09-28T03:15:03.027Z,5.22
2022-09-28T03:16:03.052Z,5.39
2022-09-28T03:17:03.023Z,5.39
2022-09-28T03:18:03.054Z,5.39
2022-09-28T03:19:03.029Z,5.78
2022-09-28T03:20:03.012Z,5.39
2022-09-28T03:21:03.031Z,5.39
2022-09-28T03:22:03.029Z,5.22
2022-09-28T03:23:27.059Z,5.39
2022-09-28T03:24:03.023Z,5.22
2022-09-28T03:25:03.022Z,5.39
2022-09-28T03:26:03.028Z,5.11
2022-09-28T03:27:03.019Z,5.39
2022-09-28T03:28:03.024Z,5.56
2022-09-28T03:29:03.023Z,5.22
2022-09-28T03:30:03.025Z,5.22
2022-09-28T03:31:03.080Z,5.11
2022-09-28T03:32:03.033Z,5.22
2022-09-28T03:33:03.032Z,5.39
2022-09-28T03:34:03.039Z,5.67
2022-09-28T03:35:03.020Z,5.56
2022-09-28T03:36:03.027Z,5.22
2022-09-28T03:37:03.026Z,5.39
2022-09-28T03:38:03.021Z,5.39
2022-09-28T03:39:03.024Z,5.22
2022-09-28T03:40:03.023Z,5.39
2022-09-28T03:41:03.064Z,5.22
2022-09-28T03:42:03.030Z,5.39
2022-09-28T03:43:03.028Z,5.39
2022-09-28T03:44:03.024Z,5.39
2022-09-28T03:45:03.034Z,5.39
2022-09-28T03:46:03.112Z,5.39
2022-09-28T03:47:03.033Z,5.39
2022-09-28T03:48:03.031Z,5.22
2022-09-28T03:49:03.030Z,5.39
2022-09-28T03:50:03.056Z,5.56
2022-09-28T03:51:03.037Z,5.39
2022-09-28T03:52:03.027Z,5.22
2022-09-28T03:53:03.022Z,5.39
2022-09-28T03:54:03.020Z,5.39
2022-09-28T03:55:03.028Z,5.22
2022-09-28T03:56:03.029Z,4.94
2022-09-28T03:57:03.034Z,5.39
2022-09-28T03:58:03.027Z,5.39
2022-09-28T03:59:03.023Z,5.22
2022-09-28T04:00:03.036Z,5.22
2022-09-28T04:01:03.113Z,5.22
2022-09-28T04:02:03.067Z,4.94
2022-09-28T04:03:03.036Z,4.94
2022-09-28T04:04:03.037Z,4.94
2022-09-28T04:05:03.041Z,4.94
2022-09-28T04:06:03.055Z,4.94
2022-09-28T04:07:03.037Z,4.83
2022-09-28T04:08:03.038Z,5.11
2022-09-28T04:09:03.070Z,5.11
2022-09-28T04:10:03.031Z,4.94
2022-09-28T04:11:03.036Z,5.11
2022-09-28T04:12:04.444Z,4.94
2022-09-28T04:13:03.033Z,4.94
2022-09-28T04:14:03.036Z,5.22
2022-09-28T04:15:03.041Z,5.22
2022-09-28T04:16:03.095Z,5.39
2022-09-28T04:17:03.032Z,5.39
2022-09-28T04:18:03.026Z,5.11
2022-09-28T04:19:03.160Z,5.11
2022-09-28T04:20:03.045Z,5.11
2022-09-28T04:21:03.031Z,5.39
2022-09-28T04:22:03.072Z,5.22
2022-09-28T04:23:03.031Z,5.22
2022-09-28T04:24:03.035Z,5.39
2022-09-28T04:25:03.034Z,5.22
2022-09-28T04:26:03.040Z,5.22
2022-09-28T04:27:03.042Z,5.39
2022-09-28T04:28:03.038Z,5.22
2022-09-28T04:29:06.492Z,5.39
2022-09-28T04:30:03.036Z,5.39
2022-09-28T04:31:03.038Z,5.11
2022-09-28T04:32:03.121Z,4.94
2022-09-28T04:33:03.039Z,5.11
2022-09-28T04:34:03.037Z,5.11
2022-09-28T04:35:03.031Z,5.22
2022-09-28T04:36:03.037Z,5.22
2022-09-28T04:37:03.041Z,5.22
2022-09-28T04:38:03.063Z,5.22
2022-09-28T04:39:03.044Z,5.22
2022-09-28T04:40:03.036Z,4.94
2022-09-28T04:41:03.117Z,5.11
2022-09-28T04:42:03.034Z,5.22
2022-09-28T04:43:03.042Z,5.22
2022-09-28T04:44:03.043Z,5.11
2022-09-28T04:45:03.041Z,4.94
2022-09-28T04:46:03.137Z,5.11
2022-09-28T04:47:05.251Z,4.94
2022-09-28T04:48:03.039Z,5.39
2022-09-28T04:49:03.041Z,4.94
2022-09-28T04:50:03.054Z,5.11
2022-09-28T04:51:03.040Z,5.11
2022-09-28T04:52:03.044Z,5.22
2022-09-28T04:53:03.047Z,5.39
2022-09-28T04:54:03.067Z,5.22
2022-09-28T04:55:03.050Z,5.39
2022-09-28T04:56:03.050Z,5.22
2022-09-28T04:57:03.044Z,5.39
2022-09-28T04:58:03.041Z,5.39
2022-09-28T04:59:03.043Z,5.39
2022-09-28T05:00:03.048Z,5.56
2022-09-28T05:01:03.109Z,5.67
2022-09-28T05:02:03.154Z,5.39
2022-09-28T05:03:03.046Z,5.39
2022-09-28T05:04:03.041Z,5.39
2022-09-28T05:05:03.049Z,5.39
2022-09-28T05:06:03.047Z,5.56
2022-09-28T05:07:03.044Z,5.39
2022-09-28T05:08:03.050Z,5.22
2022-09-28T05:09:03.051Z,5.39
2022-09-28T05:10:03.070Z,5.22
2022-09-28T05:11:03.050Z,5.22
2022-09-28T05:12:03.054Z,5.39
2022-09-28T05:13:03.047Z,5.22
2022-09-28T05:14:03.056Z,5.39
2022-09-28T05:15:03.043Z,5.39
2022-09-28T05:16:05.344Z,5.22
2022-09-28T05:17:03.077Z,5.39
2022-09-28T05:18:03.044Z,5.22
2022-09-28T05:19:03.055Z,5.39
2022-09-28T05:20:03.053Z,4.94
2022-09-28T05:21:03.050Z,5.39
2022-09-28T05:22:03.045Z,5.39
2022-09-28T05:23:03.051Z,5.11
2022-09-28T05:24:03.038Z,5.11
2022-09-28T05:25:03.050Z,5.11
2022-09-28T05:26:03.073Z,4.94
2022-09-28T05:27:03.045Z,5.22
2022-09-28T05:28:03.055Z,5.11
2022-09-28T05:29:03.050Z,5.22
2022-09-28T05:30:03.049Z,5.22
2022-09-28T05:31:03.066Z,5.22
2022-09-28T05:32:03.079Z,5.56
2022-09-28T05:33:03.053Z,5.39
2022-09-28T05:34:03.047Z,5.39
2022-09-28T05:35:03.039Z,5.39
2022-09-28T05:36:03.044Z,5.67
2022-09-28T05:37:03.050Z,5.67
2022-09-28T05:38:03.053Z,5.22
2022-09-28T05:39:03.053Z,5.39
2022-09-28T05:40:03.051Z,5.39
2022-09-28T05:41:06.353Z,5.39
2022-09-28T05:42:03.075Z,5.22
2022-09-28T05:43:03.053Z,5.39
2022-09-28T05:44:03.048Z,5.39
2022-09-28T05:45:03.052Z,5.39
2022-09-28T05:46:03.105Z,5.56
2022-09-28T05:47:03.047Z,5.39
2022-09-28T05:48:03.055Z,5.56
2022-09-28T05:49:03.050Z,5.39
2022-09-28T05:50:03.047Z,5.67
2022-09-28T05:51:03.054Z,5.39
2022-09-28T05:52:03.061Z,5.39
2022-09-28T05:53:03.056Z,5.56
2022-09-28T05:54:05.861Z,5.78
2022-09-28T05:55:03.056Z,5.67
2022-09-28T05:56:03.062Z,5.56
2022-09-28T05:57:03.056Z,5.56
2022-09-28T05:58:03.075Z,5.56
2022-09-28T05:59:03.047Z,5.67
2022-09-28T06:00:03.050Z,5.78
2022-09-28T06:01:03.095Z,5.94
2022-09-28T06:02:03.118Z,5.94
2022-09-28T06:03:06.650Z,5.67
2022-09-28T06:04:03.075Z,5.94
2022-09-28T06:05:03.060Z,5.94
2022-09-28T06:06:03.060Z,5.94
2022-09-28T06:07:03.052Z,5.78
2022-09-28T06:08:03.048Z,5.67
2022-09-28T06:09:03.057Z,5.94
2022-09-28T06:10:03.063Z,5.78
2022-09-28T06:11:03.052Z,5.78
2022-09-28T06:12:03.054Z,5.56
2022-09-28T06:13:03.054Z,5.94
2022-09-28T06:14:03.079Z,5.56
2022-09-28T06:15:03.047Z,5.94
2022-09-28T06:16:03.057Z,5.67
2022-09-28T06:17:03.168Z,5.67
2022-09-28T06:18:03.071Z,6.06
2022-09-28T06:19:03.059Z,6.22
2022-09-28T06:20:03.063Z,6.22
2022-09-28T06:21:03.053Z,6.06
2022-09-28T06:22:03.048Z,6.22
2022-09-28T06:23:03.058Z,6.22
2022-09-28T06:24:03.065Z,6.22
2022-09-28T06:25:03.054Z,6.06
2022-09-28T06:26:03.056Z,6.22
2022-09-28T06:27:03.057Z,6.22
2022-09-28T06:28:03.062Z,6.39
2022-09-28T06:29:03.056Z,6.67
2022-09-28T06:30:03.074Z,6.67
2022-09-28T06:31:03.170Z,6.39
2022-09-28T06:32:03.057Z,6.5
2022-09-28T06:33:03.068Z,6.78
2022-09-28T06:34:03.074Z,6.78
2022-09-28T06:35:03.060Z,6.67
2022-09-28T06:36:03.058Z,6.67
2022-09-28T06:37:03.062Z,6.39
2022-09-28T06:38:03.058Z,6.67
2022-09-28T06:39:03.061Z,6.5
2022-09-28T06:40:03.059Z,6.39
2022-09-28T06:41:03.109Z,6.67
2022-09-28T06:42:03.054Z,6.39
2022-09-28T06:43:03.061Z,6.39
2022-09-28T06:44:03.070Z,6.39
2022-09-28T06:45:03.055Z,6.5
2022-09-28T06:46:03.166Z,6.67
2022-09-28T06:47:03.063Z,6.67
2022-09-28T06:48:03.074Z,6.94
2022-09-28T06:49:03.069Z,6.94
2022-09-28T06:50:03.068Z,6.78
2022-09-28T06:51:03.064Z,6.94
2022-09-28T06:52:03.068Z,6.94
2022-09-28T06:53:03.066Z,7.11
2022-09-28T06:54:03.067Z,6.94
2022-09-28T06:55:03.066Z,7.22
2022-09-28T06:56:03.075Z,7.11
2022-09-28T06:57:03.063Z,7.11
2022-09-28T06:58:03.061Z,6.94
2022-09-28T06:59:03.061Z,6.94
2022-09-28T07:00:03.066Z,6.94
2022-09-28T07:01:03.172Z,7.11
2022-09-28T07:02:03.138Z,7.11
2022-09-28T07:03:03.069Z,7.11
2022-09-28T07:04:03.065Z,7.22
2022-09-28T07:05:03.077Z,7.39
2022-09-28T07:06:03.061Z,7.11
2022-09-28T07:07:03.072Z,6.78
2022-09-28T07:08:03.072Z,6.67
2022-09-28T07:09:12.675Z,6.67
2022-09-28T07:10:03.065Z,6.94
2022-09-28T07:11:03.069Z,6.5
2022-09-28T07:12:03.069Z,6.78
2022-09-28T07:13:03.145Z,6.94
2022-09-28T07:14:03.063Z,7.11
2022-09-28T07:15:03.076Z,7.11
2022-09-28T07:16:03.072Z,6.67
2022-09-28T07:17:12.871Z,7.11
2022-09-28T07:18:04.054Z,7.11
2022-09-28T07:19:03.075Z,7.39
2022-09-28T07:20:14.031Z,7.22
2022-09-28T07:21:03.072Z,7.22
2022-09-28T07:22:05.323Z,7.39
2022-09-28T07:23:13.695Z,6.94
2022-09-28T07:24:03.078Z,6.94
2022-09-28T07:25:03.074Z,7.39
2022-09-28T07:26:03.604Z,7.5
2022-09-28T07:27:03.067Z,7.78
2022-09-28T07:28:03.071Z,7.39
2022-09-28T07:29:03.072Z,7.22
2022-09-28T07:30:03.068Z,7.22
2022-09-28T07:31:03.095Z,7.11
2022-09-28T07:32:03.068Z,7.78
2022-09-28T07:33:03.073Z,7.67
2022-09-28T07:34:03.140Z,7.78
2022-09-28T07:35:03.070Z,7.67
2022-09-28T07:36:03.066Z,6.94
2022-09-28T07:37:03.075Z,7.78
2022-09-28T07:38:03.073Z,7.5
2022-09-28T07:39:03.076Z,7.67
2022-09-28T07:40:03.073Z,7.67
2022-09-28T07:41:03.127Z,7.78
2022-09-28T07:42:03.228Z,7.67
2022-09-28T07:43:03.067Z,7.22
2022-09-28T07:44:03.063Z,7.5
2022-09-28T07:45:03.075Z,7.22
2022-09-28T07:46:03.126Z,7.67
2022-09-28T07:47:03.072Z,7.78
2022-09-28T07:48:03.113Z,7.67
2022-09-28T07:49:04.785Z,7.67
2022-09-28T07:50:03.112Z,7.94
2022-09-28T07:51:03.080Z,7.67
2022-09-28T07:52:03.079Z,7.5
2022-09-28T07:53:03.073Z,7.67
2022-09-28T07:54:03.078Z,7.5
2022-09-28T07:55:06.765Z,7.5
2022-09-28T07:56:03.088Z,7.94
2022-09-28T07:57:03.073Z,7.67
2022-09-28T07:58:03.077Z,7.94
2022-09-28T07:59:03.081Z,7.94
2022-09-28T08:00:03.070Z,7.78
2022-09-28T08:01:03.113Z,8.39
2022-09-28T08:02:03.163Z,8.28
2022-09-28T08:03:03.072Z,8.11
2022-09-28T08:04:03.091Z,8.39
2022-09-28T08:05:03.079Z,8.11
2022-09-28T08:06:03.107Z,8.28
2022-09-28T08:07:03.079Z,8.5
2022-09-28T08:08:03.077Z,8.5
2022-09-28T08:09:03.086Z,8.78
2022-09-28T08:10:03.076Z,8.94
2022-09-28T08:11:03.080Z,9.22
2022-09-28T08:12:03.078Z,9.39
2022-09-28T08:13:03.282Z,8.94
2022-09-28T08:14:03.080Z,9.22
2022-09-28T08:15:03.085Z,9.39
2022-09-28T08:16:03.081Z,8.94
2022-09-28T08:17:03.089Z,8.78
2022-09-28T08:18:03.120Z,8.78
2022-09-28T08:19:03.078Z,9.67
2022-09-28T08:20:03.082Z,9.67
2022-09-28T08:21:03.079Z,9.67
2022-09-28T08:22:03.110Z,9.39
2022-09-28T08:23:03.079Z,9.5
2022-09-28T08:24:03.075Z,9.39
2022-09-28T08:25:03.083Z,8.61
2022-09-28T08:26:03.073Z,8.5
2022-09-28T08:27:03.085Z,8.28
2022-09-28T08:28:03.085Z,8.39
2022-09-28T08:29:03.084Z,8.78
2022-09-28T08:30:03.075Z,8.61
2022-09-28T08:31:03.260Z,8.39
2022-09-28T08:32:03.081Z,8.61
2022-09-28T08:33:03.085Z,8.78
2022-09-28T08:34:03.090Z,9.22
2022-09-28T08:35:03.083Z,8.94
2022-09-28T08:36:03.081Z,9.06
2022-09-28T08:37:03.082Z,9.06
2022-09-28T08:38:03.104Z,8.78
2022-09-28T08:39:03.088Z,9.06
2022-09-28T08:40:03.083Z,9.22
2022-09-28T08:41:03.114Z,9.78
2022-09-28T08:42:03.081Z,9.22
2022-09-28T08:43:03.082Z,9.67
2022-09-28T08:44:03.087Z,9.78
2022-09-28T08:45:03.088Z,9.78
2022-09-28T08:46:03.133Z,9.67
2022-09-28T08:47:03.082Z,9.67
2022-09-28T08:48:03.082Z,9.78
2022-09-28T08:50:03.087Z,9.22
2022-09-28T08:51:03.093Z,9.06
2022-09-28T08:52:03.086Z,8.78
2022-09-28T08:53:03.094Z,8.61
2022-09-28T08:54:04.780Z,8.94
2022-09-28T08:55:03.098Z,8.61
2022-09-28T08:56:03.097Z,8.39
2022-09-28T08:57:03.097Z,8.39
2022-09-28T08:58:03.107Z,8.39
2022-09-28T08:59:03.085Z,8.61
2022-09-28T09:00:03.287Z,8.5
2022-09-28T09:01:03.390Z,8.5
2022-09-28T09:02:03.346Z,8.78
2022-09-28T09:03:03.278Z,8.94
2022-09-28T09:04:03.284Z,8.78
2022-09-28T09:05:03.278Z,9.22
2022-09-28T09:06:03.274Z,9.67
2022-09-28T09:07:03.290Z,9.22
2022-09-28T09:08:03.279Z,9.22
2022-09-28T09:09:03.273Z,9.67
2022-09-28T09:10:03.326Z,9.22
2022-09-28T09:11:03.288Z,9.78
2022-09-28T09:12:03.283Z,10.11
2022-09-28T09:13:03.283Z,10.22
2022-09-28T09:14:03.280Z,10.39
2022-09-28T09:15:03.290Z,9.22
2022-09-28T09:16:03.284Z,8.78
2022-09-28T09:17:03.327Z,8.5
2022-09-28T09:18:03.283Z,9.06
2022-09-28T09:19:03.298Z,8.94
2022-09-28T09:20:03.295Z,9.06
2022-09-28T09:21:03.282Z,9.06
2022-09-28T09:22:03.300Z,9.94
2022-09-28T09:23:03.292Z,9.78
2022-09-28T09:24:03.285Z,9.5
2022-09-28T09:25:03.285Z,8.94
2022-09-28T09:26:03.301Z,9.67
2022-09-28T09:27:03.296Z,9.67
2022-09-28T09:28:03.286Z,9.67
2022-09-28T09:29:03.294Z,9.94
2022-09-28T09:30:03.334Z,10.11
2022-09-28T09:31:03.319Z,10.11
2022-09-28T09:32:03.291Z,10.11
2022-09-28T09:33:03.291Z,10.22
2022-09-28T09:34:03.284Z,10.11
2022-09-28T09:35:03.286Z,10.39
2022-09-28T09:36:03.305Z,10.39
2022-09-28T09:37:03.284Z,10.22
2022-09-28T09:38:03.298Z,10.39
2022-09-28T09:39:03.292Z,9.5
2022-09-28T09:40:03.287Z,10.39
2022-09-28T09:41:03.455Z,10.39
2022-09-28T09:42:03.337Z,9.94
2022-09-28T09:43:03.295Z,9.67
2022-09-28T09:44:03.298Z,10.11
2022-09-28T09:45:03.292Z,10.56
2022-09-28T09:46:03.358Z,10.56
2022-09-28T09:47:03.292Z,11.44
2022-09-28T09:48:03.288Z,11.83
2022-09-28T09:49:03.293Z,11.11
2022-09-28T09:50:05.280Z,10.67
2022-09-28T09:51:03.301Z,11.44
2022-09-28T09:52:03.296Z,11.61
2022-09-28T09:53:03.295Z,11.44
2022-09-28T09:54:03.289Z,10.83
2022-09-28T09:55:03.290Z,11.28
2022-09-28T09:56:03.288Z,11.83
2022-09-28T09:57:03.290Z,12.44
2022-09-28T09:58:03.309Z,12.72
2022-09-28T09:59:03.292Z,12.56
2022-09-28T10:00:03.303Z,12.11
2022-09-28T10:01:03.345Z,11.94
2022-09-28T10:02:03.329Z,12.28
2022-09-28T10:03:03.292Z,12.28
2022-09-28T10:04:03.294Z,11.83
2022-09-28T10:05:03.289Z,11.83
2022-09-28T10:06:03.296Z,11.61
2022-09-28T10:07:03.290Z,11.94
2022-09-28T10:08:03.302Z,11.94
2022-09-28T10:09:03.308Z,11.94
2022-09-28T10:10:03.302Z,11.72
2022-09-28T10:11:03.297Z,11
2022-09-28T10:12:03.299Z,11.61
2022-09-28T10:13:03.302Z,11.83
2022-09-28T10:14:03.323Z,11.61
2022-09-28T10:15:03.300Z,12.72
2022-09-28T10:16:03.296Z,12.72
2022-09-28T10:17:03.384Z,12.89
2022-09-28T10:18:03.311Z,12.72
2022-09-28T10:19:03.301Z,11.83
2022-09-28T10:20:03.293Z,11.44
2022-09-28T10:21:03.310Z,11.44
2022-09-28T10:22:03.311Z,11.72
2022-09-28T10:23:03.301Z,11.83
2022-09-28T10:24:03.308Z,11.72
2022-09-28T10:25:03.301Z,12
2022-09-28T10:26:03.303Z,11.5
2022-09-28T10:27:03.305Z,12.89
2022-09-28T10:28:03.308Z,13.17
2022-09-28T10:29:03.311Z,13.5
2022-09-28T10:30:03.335Z,13.06
2022-09-28T10:31:03.399Z,13.39
2022-09-28T10:32:03.299Z,12.78
2022-09-28T10:33:03.309Z,13.67
2022-09-28T10:34:03.308Z,13.94
2022-09-28T10:35:03.308Z,14.28
2022-09-28T10:36:03.307Z,14.67
2022-09-28T10:37:03.311Z,15
2022-09-28T10:38:03.315Z,15.06
2022-09-28T10:39:03.317Z,15.17
2022-09-28T10:40:03.307Z,15.28
2022-09-28T10:41:03.375Z,15.56
2022-09-28T10:42:03.319Z,15.17
2022-09-28T10:43:03.314Z,14.61
2022-09-28T10:44:03.305Z,13.83
2022-09-28T10:45:03.306Z,13.83
2022-09-28T10:46:03.473Z,13.39
2022-09-28T10:47:03.328Z,13.39
2022-09-28T10:48:03.325Z,14.11
2022-09-28T10:49:03.319Z,14
2022-09-28T10:50:03.312Z,13.83
2022-09-28T10:51:03.311Z,14.28
2022-09-28T10:52:03.310Z,14.28
2022-09-28T10:53:03.313Z,14.89
2022-09-28T10:54:03.310Z,14.44
2022-09-28T10:55:03.313Z,14.28
2022-09-28T10:56:03.312Z,13.67
2022-09-28T10:57:03.314Z,14.78
2022-09-28T10:58:03.315Z,14.78
2022-09-28T10:59:03.319Z,14.89
2022-09-28T11:00:03.317Z,15.17
2022-09-28T11:01:03.371Z,15.61
2022-09-28T11:02:03.388Z,15.06
2022-09-28T11:03:03.320Z,15.06
2022-09-28T11:04:03.305Z,14.78
2022-09-28T11:05:03.319Z,14.28
2022-09-28T11:06:03.317Z,13.39
2022-09-28T11:07:03.321Z,13.67
2022-09-28T11:08:03.317Z,13.83
2022-09-28T11:09:03.328Z,14.11
2022-09-28T11:10:03.329Z,13.56
2022-09-28T11:11:03.327Z,13.83
2022-09-28T11:12:03.316Z,14
2022-09-28T11:13:03.341Z,14.78
2022-09-28T11:14:03.325Z,14.78
2022-09-28T11:15:03.322Z,14
2022-09-28T11:16:03.322Z,14.11
2022-09-28T11:17:03.375Z,14.78
2022-09-28T11:18:03.346Z,15.28
2022-09-28T11:19:03.322Z,15.61
2022-09-28T11:20:03.329Z,15.06
2022-09-28T11:21:03.328Z,14.44
2022-09-28T11:22:03.332Z,15.17
2022-09-28T11:23:03.320Z,15.17
2022-09-28T11:24:03.330Z,14.78
2022-09-28T11:25:03.331Z,15.17
2022-09-28T11:26:03.329Z,15.06
2022-09-28T11:27:03.345Z,15.06
2022-09-28T11:28:03.328Z,14.44
2022-09-28T11:29:03.332Z,15.17
2022-09-28T11:30:03.328Z,15.28
2022-09-28T11:31:03.385Z,16.06
2022-09-28T11:32:03.326Z,15.89
2022-09-28T11:33:03.335Z,16.06
2022-09-28T11:34:03.355Z,15.78
2022-09-28T11:35:03.332Z,14.78
2022-09-28T11:36:03.337Z,14.78
2022-09-28T11:37:03.348Z,14.44
2022-09-28T11:38:03.338Z,15.06
2022-09-28T11:39:03.335Z,15.06
2022-09-28T11:40:03.335Z,15.17
2022-09-28T11:41:03.432Z,15.17
2022-09-28T11:42:03.350Z,15.44
2022-09-28T11:43:03.374Z,15.28
2022-09-28T11:44:03.328Z,15.17
2022-09-28T11:45:03.329Z,15.17
2022-09-28T11:46:03.411Z,14.78
2022-09-28T11:47:03.333Z,15.17
2022-09-28T11:48:03.337Z,15.44
2022-09-28T11:49:03.335Z,14.61
2022-09-28T11:50:03.372Z,15.17
2022-09-28T11:51:03.333Z,14.78
2022-09-28T11:52:03.349Z,14.89
2022-09-28T11:53:03.333Z,14.89
2022-09-28T11:54:03.334Z,14.78
2022-09-28T11:55:03.347Z,15.06
2022-09-28T11:56:07.995Z,16.22
2022-09-28T11:57:03.338Z,16.39
2022-09-28T11:58:03.340Z,16.39
2022-09-28T11:59:03.337Z,16.06
2022-09-28T12:00:03.338Z,15.44
2022-09-28T12:01:03.338Z,15.78
2022-09-28T12:02:03.443Z,15.78
2022-09-28T12:03:03.464Z,16.06
2022-09-28T12:04:03.335Z,16.22
2022-09-28T12:05:03.337Z,16.06
2022-09-28T12:06:03.378Z,16.22
2022-09-28T12:07:03.339Z,16.39
2022-09-28T12:08:03.340Z,15.89
2022-09-28T12:09:03.330Z,16.06
2022-09-28T12:10:03.344Z,16.22
2022-09-28T12:11:03.348Z,16.89
2022-09-28T12:12:03.350Z,16.22
2022-09-28T12:13:03.340Z,15.89
2022-09-28T12:14:03.337Z,16.06
2022-09-28T12:15:03.332Z,16.56
2022-09-28T12:17:07.072Z,17
2022-09-28T12:18:03.438Z,17.83
2022-09-28T12:19:03.362Z,17.94
2022-09-28T12:20:03.394Z,17.5
2022-09-28T12:21:04.953Z,17.5
2022-09-28T12:22:03.368Z,17.5
2022-09-28T12:23:03.347Z,17
2022-09-28T12:24:03.343Z,17.17
2022-09-28T12:25:03.346Z,16.72
2022-09-28T12:26:03.348Z,16.56
2022-09-28T12:27:03.353Z,16.22
2022-09-28T12:28:03.344Z,16.06
2022-09-28T12:29:03.341Z,15.17
2022-09-28T12:30:03.354Z,15.33
2022-09-28T12:31:03.377Z,15.61
2022-09-28T12:32:03.344Z,15.61
2022-09-28T12:33:03.348Z,15.44
2022-09-28T12:34:03.345Z,15.44
2022-09-28T12:35:03.351Z,14.5
2022-09-28T12:36:03.349Z,14.83
2022-09-28T12:37:03.348Z,14.83
2022-09-28T12:38:03.378Z,14.94
2022-09-28T12:39:17.950Z,14.94
2022-09-28T12:40:03.578Z,14.61
2022-09-28T12:41:03.439Z,15.22
2022-09-28T12:42:03.349Z,15.22
2022-09-28T12:43:03.353Z,14.83
2022-09-28T12:44:03.345Z,14.94
2022-09-28T12:45:03.348Z,14.83
2022-09-28T12:46:12.223Z,14.61
2022-09-28T12:47:03.366Z,14.94
2022-09-28T12:48:03.351Z,14.94
2022-09-28T12:49:47.535Z,14.33
2022-09-28T12:51:03.352Z,14.94
2022-09-28T12:52:03.349Z,14.5
2022-09-28T12:53:03.417Z,14.33
2022-09-28T12:54:03.381Z,14.5
2022-09-28T12:55:03.426Z,14.06
2022-09-28T12:56:03.356Z,14.5
2022-09-28T12:57:03.357Z,14.33
2022-09-28T12:58:03.360Z,14.33
2022-09-28T12:59:03.351Z,14.06
2022-09-28T13:00:03.362Z,14.33
2022-09-28T13:01:03.533Z,14.06
2022-09-28T13:02:03.369Z,13.72
2022-09-28T13:03:03.367Z,13.56
2022-09-28T13:04:03.365Z,13.56
2022-09-28T13:05:03.358Z,13.56
2022-09-28T13:06:03.359Z,13.56
2022-09-28T13:07:03.364Z,13
2022-09-28T13:08:03.369Z,13.44
2022-09-28T13:09:03.362Z,13.17
2022-09-28T13:10:03.407Z,13.28
2022-09-28T13:11:07.660Z,12.83
2022-09-28T13:12:03.357Z,13.56
2022-09-28T13:13:03.363Z,13.56
2022-09-28T13:14:03.364Z,13.72
2022-09-28T13:15:03.379Z,13.72